PWSweather.com
Personal Weather Stations
Station Observations
KVAGLENALL
West Henrico, Glen Allen, VA 23060-6503

West HenricoGlen Allen, VA 23060-6503

Lat: 37.6554, Lon: -77.5693

Elevation: 273

Station Type: Davis Vantage Pro II

www.glenallenweather.com

High Low Average
Temperature 83.1°F28.4°C 61.7°F16.5°C 71.7°F22.1°C
Dew Point 72.3°F22.4°C 60.7°F15.9°C 66.5°F19.2°C
Winds 11.0 mph 17.7 kmh Calm Calm 2.0 mph S3.2 kmh S
Wind Gusts 12.1 mph19.5 kmh -- 4.0 mph6.4 kmh
Humidity 97% 65% 85%
Pressure 30.35 in1027.8 mb 30.23 in1023.7 mb -
Precipitation 0.00 in0.0 mm - -
Hour Temp Dew Point Humidity Winds Wind Gusts Pressure Precip Precip Rate Daily Precip Total
12:00 AM 63.5°F17.5°C 62.1°F16.7°C 95% 2.0 mph S3.2 kmh S 4.0 mph6.4 kmh 30.32 in1026.8 mb 0.00 in0.0 mm 0.00 in0.0 mm 0.00 in0.0 mm
12:15 AM 63.2°F17.3°C 61.8°F16.6°C 95% 1.0 mph S1.6 kmh S 2.0 mph3.2 kmh 30.32 in1026.8 mb 0.00 in0.0 mm 0.00 in0.0 mm 0.00 in0.0 mm
12:30 AM 63.2°F17.3°C 61.8°F16.6°C 95% 1.0 mph S1.6 kmh S 2.0 mph3.2 kmh 30.32 in1026.8 mb 0.00 in0.0 mm 0.00 in0.0 mm 0.00 in0.0 mm
12:45 AM 63.0°F17.2°C 61.9°F16.6°C 96% Calm Calm 1.0 mph1.6 kmh 30.31 in1026.4 mb 0.00 in0.0 mm 0.00 in0.0 mm 0.00 in0.0 mm
01:00 AM 62.7°F17.1°C 61.6°F16.4°C 96% Calm Calm 2.0 mph3.2 kmh 30.31 in1026.4 mb 0.00 in0.0 mm 0.00 in0.0 mm 0.00 in0.0 mm
01:15 AM 62.6°F17.0°C 61.2°F16.2°C 95% Calm Calm -- 30.31 in1026.4 mb 0.00 in0.0 mm 0.00 in0.0 mm 0.00 in0.0 mm
01:30 AM 62.1°F16.7°C 61.0°F16.1°C 96% Calm Calm -- 30.31 in1026.4 mb 0.00 in0.0 mm 0.00 in0.0 mm 0.00 in0.0 mm
01:45 AM 62.0°F16.7°C 60.9°F16.1°C 96% Calm Calm -- 30.31 in1026.4 mb 0.00 in0.0 mm 0.00 in0.0 mm 0.00 in0.0 mm
02:00 AM 61.8°F16.6°C 60.7°F15.9°C 96% Calm Calm -- 30.31 in1026.4 mb 0.00 in0.0 mm 0.00 in0.0 mm 0.00 in0.0 mm
02:15 AM 61.7°F16.5°C 60.9°F16.1°C 97% Calm Calm -- 30.31 in1026.4 mb 0.00 in0.0 mm 0.00 in0.0 mm 0.00 in0.0 mm
02:30 AM 62.0°F16.7°C 61.2°F16.2°C 97% Calm Calm -- 30.31 in1026.4 mb 0.00 in0.0 mm 0.00 in0.0 mm 0.00 in0.0 mm
02:45 AM 62.1°F16.7°C 61.3°F16.3°C 97% Calm Calm 2.0 mph3.2 kmh 30.31 in1026.4 mb 0.00 in0.0 mm 0.00 in0.0 mm 0.00 in0.0 mm
03:00 AM 62.1°F16.7°C 61.3°F16.3°C 97% Calm Calm 1.0 mph1.6 kmh 30.31 in1026.4 mb 0.00 in0.0 mm 0.00 in0.0 mm 0.00 in0.0 mm
03:15 AM 62.0°F16.7°C 61.2°F16.2°C 97% Calm Calm -- 30.30 in1026.1 mb 0.00 in0.0 mm 0.00 in0.0 mm 0.00 in0.0 mm
03:30 AM 62.1°F16.7°C 61.3°F16.3°C 97% Calm Calm 1.0 mph1.6 kmh 30.31 in1026.4 mb 0.00 in0.0 mm 0.00 in0.0 mm 0.00 in0.0 mm
03:45 AM 62.4°F16.9°C 61.6°F16.4°C 97% 1.0 mph SSW1.6 kmh SSW 3.0 mph4.8 kmh 30.31 in1026.4 mb 0.00 in0.0 mm 0.00 in0.0 mm 0.00 in0.0 mm
04:00 AM 62.6°F17.0°C 61.8°F16.6°C 97% 4.0 mph SSW6.4 kmh SSW 6.1 mph9.8 kmh 30.30 in1026.1 mb 0.00 in0.0 mm 0.00 in0.0 mm 0.00 in0.0 mm
04:15 AM 63.3°F17.4°C 62.2°F16.8°C 96% 3.0 mph SSW4.8 kmh SSW 4.0 mph6.4 kmh 30.31 in1026.4 mb 0.00 in0.0 mm 0.00 in0.0 mm 0.00 in0.0 mm
04:30 AM 63.4°F17.4°C 62.0°F16.7°C 95% Calm Calm -- 30.31 in1026.4 mb 0.00 in0.0 mm 0.00 in0.0 mm 0.00 in0.0 mm
04:45 AM 63.2°F17.3°C 61.8°F16.6°C 95% 1.0 mph SSW1.6 kmh SSW 2.0 mph3.2 kmh 30.30 in1026.1 mb 0.00 in0.0 mm 0.00 in0.0 mm 0.00 in0.0 mm
05:00 AM 63.0°F17.2°C 61.6°F16.4°C 95% 1.0 mph SSW1.6 kmh SSW 2.0 mph3.2 kmh 30.31 in1026.4 mb 0.00 in0.0 mm 0.00 in0.0 mm 0.00 in0.0 mm
05:15 AM 63.0°F17.2°C 61.6°F16.4°C 95% 2.0 mph SSW3.2 kmh SSW 4.0 mph6.4 kmh 30.31 in1026.4 mb 0.00 in0.0 mm 0.00 in0.0 mm 0.00 in0.0 mm
05:30 AM 63.1°F17.3°C 61.7°F16.5°C 95% 2.0 mph SSW3.2 kmh SSW 2.0 mph3.2 kmh 30.31 in1026.4 mb 0.00 in0.0 mm 0.00 in0.0 mm 0.00 in0.0 mm
05:45 AM 63.3°F17.4°C 61.9°F16.6°C 95% 1.0 mph S1.6 kmh S 3.0 mph4.8 kmh 30.31 in1026.4 mb 0.00 in0.0 mm 0.00 in0.0 mm 0.00 in0.0 mm
06:00 AM 63.4°F17.4°C 62.0°F16.7°C 95% Calm Calm -- 30.32 in1026.8 mb 0.00 in0.0 mm 0.00 in0.0 mm 0.00 in0.0 mm
06:15 AM 63.6°F17.6°C 62.2°F16.8°C 95% Calm Calm -- 30.32 in1026.8 mb 0.00 in0.0 mm 0.00 in0.0 mm 0.00 in0.0 mm
06:30 AM 63.5°F17.5°C 62.1°F16.7°C 95% 3.0 mph S4.8 kmh S 3.0 mph4.8 kmh 30.32 in1026.8 mb 0.00 in0.0 mm 0.00 in0.0 mm 0.00 in0.0 mm
06:45 AM 63.3°F17.4°C 61.9°F16.6°C 95% 2.0 mph SSW3.2 kmh SSW 3.0 mph4.8 kmh 30.32 in1026.8 mb 0.00 in0.0 mm 0.00 in0.0 mm 0.00 in0.0 mm
07:00 AM 63.5°F17.5°C 62.1°F16.7°C 95% 1.0 mph S1.6 kmh S 5.1 mph8.2 kmh 30.32 in1026.8 mb 0.00 in0.0 mm 0.00 in0.0 mm 0.00 in0.0 mm
07:15 AM 63.7°F17.6°C 62.3°F16.8°C 95% 2.0 mph SSW3.2 kmh SSW 2.0 mph3.2 kmh 30.32 in1026.8 mb 0.00 in0.0 mm 0.00 in0.0 mm 0.00 in0.0 mm
07:30 AM 63.4°F17.4°C 62.0°F16.7°C 95% 3.0 mph SW4.8 kmh SW 3.0 mph4.8 kmh 30.33 in1027.1 mb 0.00 in0.0 mm 0.00 in0.0 mm 0.00 in0.0 mm
07:45 AM 63.5°F17.5°C 62.1°F16.7°C 95% 2.0 mph SSW3.2 kmh SSW 3.0 mph4.8 kmh 30.33 in1027.1 mb 0.00 in0.0 mm 0.00 in0.0 mm 0.00 in0.0 mm
08:00 AM 64.1°F17.8°C 62.7°F17.1°C 95% Calm Calm 2.0 mph3.2 kmh 30.33 in1027.1 mb 0.00 in0.0 mm 0.00 in0.0 mm 0.00 in0.0 mm
08:15 AM 64.7°F18.2°C 63.0°F17.2°C 94% 2.0 mph SW3.2 kmh SW 3.0 mph4.8 kmh 30.34 in1027.4 mb 0.00 in0.0 mm 0.00 in0.0 mm 0.00 in0.0 mm
08:30 AM 67.3°F19.6°C 64.6°F18.1°C 91% 3.0 mph S4.8 kmh S 3.0 mph4.8 kmh 30.34 in1027.4 mb 0.00 in0.0 mm 0.00 in0.0 mm 0.00 in0.0 mm
08:45 AM 68.6°F20.3°C 65.0°F18.3°C 88% 3.0 mph SSW4.8 kmh SSW 3.0 mph4.8 kmh 30.34 in1027.4 mb 0.00 in0.0 mm 0.00 in0.0 mm 0.00 in0.0 mm
09:00 AM 68.7°F20.4°C 65.7°F18.7°C 90% 1.0 mph S1.6 kmh S 2.0 mph3.2 kmh 30.35 in1027.8 mb 0.00 in0.0 mm 0.00 in0.0 mm 0.00 in0.0 mm
09:15 AM 69.8°F21.0°C 65.7°F18.7°C 87% 2.0 mph S3.2 kmh S 3.0 mph4.8 kmh 30.35 in1027.8 mb 0.00 in0.0 mm 0.00 in0.0 mm 0.00 in0.0 mm
09:30 AM 70.6°F21.4°C 65.8°F18.8°C 85% 5.0 mph S8.0 kmh S 6.1 mph9.8 kmh 30.35 in1027.8 mb 0.00 in0.0 mm 0.00 in0.0 mm 0.00 in0.0 mm
09:45 AM 72.1°F22.3°C 67.0°F19.4°C 84% 2.0 mph S3.2 kmh S 4.0 mph6.4 kmh 30.35 in1027.8 mb 0.00 in0.0 mm 0.00 in0.0 mm 0.00 in0.0 mm
10:00 AM 73.8°F23.2°C 67.6°F19.8°C 81% Calm Calm 2.0 mph3.2 kmh 30.35 in1027.8 mb 0.00 in0.0 mm 0.00 in0.0 mm 0.00 in0.0 mm
10:15 AM 75.4°F24.1°C 67.7°F19.8°C 77% 2.0 mph W3.2 kmh W 5.1 mph8.2 kmh 30.35 in1027.8 mb 0.00 in0.0 mm 0.00 in0.0 mm 0.00 in0.0 mm
10:30 AM 76.5°F24.7°C 69.1°F20.6°C 78% 4.0 mph SW6.4 kmh SW 4.0 mph6.4 kmh 30.34 in1027.4 mb 0.00 in0.0 mm 0.00 in0.0 mm 0.00 in0.0 mm
10:45 AM 77.0°F25.0°C 68.5°F20.3°C 75% 5.0 mph SSW8.0 kmh SSW 7.1 mph11.4 kmh 30.34 in1027.4 mb 0.00 in0.0 mm 0.00 in0.0 mm 0.00 in0.0 mm
11:00 AM 78.0°F25.6°C 69.0°F20.6°C 74% 5.0 mph SSW8.0 kmh SSW 6.1 mph9.8 kmh 30.34 in1027.4 mb 0.00 in0.0 mm 0.00 in0.0 mm 0.00 in0.0 mm
11:15 AM 79.1°F26.2°C 69.7°F20.9°C 73% 4.0 mph SW6.4 kmh SW 4.0 mph6.4 kmh 30.34 in1027.4 mb 0.00 in0.0 mm 0.00 in0.0 mm 0.00 in0.0 mm
11:30 AM 79.1°F26.2°C 68.9°F20.5°C 71% 2.0 mph S3.2 kmh S 7.1 mph11.4 kmh 30.33 in1027.1 mb 0.00 in0.0 mm 0.00 in0.0 mm 0.00 in0.0 mm
11:45 AM 80.0°F26.7°C 68.9°F20.5°C 69% 5.0 mph SW8.0 kmh SW 8.1 mph13.0 kmh 30.33 in1027.1 mb 0.00 in0.0 mm 0.00 in0.0 mm 0.00 in0.0 mm
12:00 PM 79.8°F26.6°C 69.2°F20.7°C 70% 3.0 mph SSE4.8 kmh SSE 8.1 mph13.0 kmh 30.33 in1027.1 mb 0.00 in0.0 mm 0.00 in0.0 mm 0.00 in0.0 mm
12:15 PM 80.3°F26.8°C 69.2°F20.7°C 69% 6.0 mph SW9.7 kmh SW 9.1 mph14.6 kmh 30.32 in1026.8 mb 0.00 in0.0 mm 0.00 in0.0 mm 0.00 in0.0 mm
12:30 PM 81.1°F27.3°C 70.0°F21.1°C 69% 3.0 mph S4.8 kmh S 11.1 mph17.9 kmh 30.32 in1026.8 mb 0.00 in0.0 mm 0.00 in0.0 mm 0.00 in0.0 mm
12:45 PM 81.2°F27.3°C 68.8°F20.4°C 66% 5.0 mph SW8.0 kmh SW 12.1 mph19.5 kmh 30.32 in1026.8 mb 0.00 in0.0 mm 0.00 in0.0 mm 0.00 in0.0 mm
01:00 PM 81.5°F27.5°C 69.1°F20.6°C 66% 3.0 mph SSW4.8 kmh SSW 8.1 mph13.0 kmh 30.31 in1026.4 mb 0.00 in0.0 mm 0.00 in0.0 mm 0.00 in0.0 mm
01:15 PM 81.7°F27.6°C 68.8°F20.4°C 65% 8.0 mph SSW12.9 kmh SSW 11.1 mph17.9 kmh 30.30 in1026.1 mb 0.00 in0.0 mm 0.00 in0.0 mm 0.00 in0.0 mm
01:30 PM 82.4°F28.0°C 69.9°F21.1°C 66% 6.0 mph SSW9.7 kmh SSW 8.1 mph13.0 kmh 30.30 in1026.1 mb 0.00 in0.0 mm 0.00 in0.0 mm 0.00 in0.0 mm
01:45 PM 82.6°F28.1°C 70.1°F21.2°C 66% 11.0 mph S17.7 kmh S 11.1 mph17.9 kmh 30.29 in1025.7 mb 0.00 in0.0 mm 0.00 in0.0 mm 0.00 in0.0 mm
02:00 PM 82.4°F28.0°C 70.4°F21.3°C 67% 9.0 mph SW14.5 kmh SW 11.1 mph17.9 kmh 30.28 in1025.4 mb 0.00 in0.0 mm 0.00 in0.0 mm 0.00 in0.0 mm
02:15 PM 83.1°F28.4°C 71.9°F22.2°C 69% 5.0 mph SW8.0 kmh SW 6.1 mph9.8 kmh 30.27 in1025.1 mb 0.00 in0.0 mm 0.00 in0.0 mm 0.00 in0.0 mm
02:30 PM 82.7°F28.2°C 70.2°F21.2°C 66% 4.0 mph S6.4 kmh S 7.1 mph11.4 kmh 30.27 in1025.1 mb 0.00 in0.0 mm 0.00 in0.0 mm 0.00 in0.0 mm
02:45 PM 82.2°F27.9°C 70.6°F21.4°C 68% Calm Calm 6.1 mph9.8 kmh 30.26 in1024.7 mb 0.00 in0.0 mm 0.00 in0.0 mm 0.00 in0.0 mm
03:00 PM 82.5°F28.1°C 71.3°F21.8°C 69% 2.0 mph S3.2 kmh S 5.1 mph8.2 kmh 30.26 in1024.7 mb 0.00 in0.0 mm 0.00 in0.0 mm 0.00 in0.0 mm
03:15 PM 82.0°F27.8°C 70.4°F21.3°C 68% 6.0 mph SW9.7 kmh SW 7.1 mph11.4 kmh 30.26 in1024.7 mb 0.00 in0.0 mm 0.00 in0.0 mm 0.00 in0.0 mm
03:30 PM 81.9°F27.7°C 71.6°F22.0°C 71% 3.0 mph S4.8 kmh S 4.0 mph6.4 kmh 30.26 in1024.7 mb 0.00 in0.0 mm 0.00 in0.0 mm 0.00 in0.0 mm
03:45 PM 81.5°F27.5°C 70.4°F21.3°C 69% 1.0 mph SW1.6 kmh SW 4.0 mph6.4 kmh 30.25 in1024.4 mb 0.00 in0.0 mm 0.00 in0.0 mm 0.00 in0.0 mm
04:00 PM 81.7°F27.6°C 71.8°F22.1°C 72% 8.0 mph SW12.9 kmh SW 8.1 mph13.0 kmh 30.25 in1024.4 mb 0.00 in0.0 mm 0.00 in0.0 mm 0.00 in0.0 mm
04:15 PM 82.0°F27.8°C 70.8°F21.6°C 69% 1.0 mph SSW1.6 kmh SSW 3.0 mph4.8 kmh 30.24 in1024.0 mb 0.00 in0.0 mm 0.00 in0.0 mm 0.00 in0.0 mm
04:30 PM 81.6°F27.6°C 70.9°F21.6°C 70% 5.0 mph SW8.0 kmh SW 7.1 mph11.4 kmh 30.25 in1024.4 mb 0.00 in0.0 mm 0.00 in0.0 mm 0.00 in0.0 mm
04:45 PM 81.8°F27.7°C 71.1°F21.7°C 70% 6.0 mph S9.7 kmh S 7.1 mph11.4 kmh 30.25 in1024.4 mb 0.00 in0.0 mm 0.00 in0.0 mm 0.00 in0.0 mm
05:00 PM 81.4°F27.4°C 72.3°F22.4°C 74% 4.0 mph SSW6.4 kmh SSW 7.1 mph11.4 kmh 30.24 in1024.0 mb 0.00 in0.0 mm 0.00 in0.0 mm 0.00 in0.0 mm
05:15 PM 81.0°F27.2°C 70.7°F21.5°C 71% 6.0 mph SSW9.7 kmh SSW 9.1 mph14.6 kmh 30.24 in1024.0 mb 0.00 in0.0 mm 0.00 in0.0 mm 0.00 in0.0 mm
05:30 PM 80.2°F26.8°C 70.4°F21.3°C 72% 5.0 mph SSW8.0 kmh SSW 9.1 mph14.6 kmh 30.23 in1023.7 mb 0.00 in0.0 mm 0.00 in0.0 mm 0.00 in0.0 mm
05:45 PM 79.2°F26.2°C 71.4°F21.9°C 77% 2.0 mph SW3.2 kmh SW 4.0 mph6.4 kmh 30.23 in1023.7 mb 0.00 in0.0 mm 0.00 in0.0 mm 0.00 in0.0 mm
06:00 PM 78.9°F26.1°C 69.9°F21.1°C 74% 8.0 mph SW12.9 kmh SW 8.1 mph13.0 kmh 30.23 in1023.7 mb 0.00 in0.0 mm 0.00 in0.0 mm 0.00 in0.0 mm
06:15 PM 78.3°F25.7°C 70.1°F21.2°C 76% 3.0 mph SW4.8 kmh SW 5.1 mph8.2 kmh 30.23 in1023.7 mb 0.00 in0.0 mm 0.00 in0.0 mm 0.00 in0.0 mm
06:30 PM 77.6°F25.3°C 70.2°F21.2°C 78% 2.0 mph S3.2 kmh S 2.0 mph3.2 kmh 30.24 in1024.0 mb 0.00 in0.0 mm 0.00 in0.0 mm 0.00 in0.0 mm
06:45 PM 76.8°F24.9°C 69.8°F21.0°C 79% 2.0 mph SE3.2 kmh SE 2.0 mph3.2 kmh 30.23 in1023.7 mb 0.00 in0.0 mm 0.00 in0.0 mm 0.00 in0.0 mm
07:00 PM 75.8°F24.3°C 70.3°F21.3°C 83% Calm Calm 2.0 mph3.2 kmh 30.23 in1023.7 mb 0.00 in0.0 mm 0.00 in0.0 mm 0.00 in0.0 mm
07:15 PM 74.6°F23.7°C 69.8°F21.0°C 85% 3.0 mph S4.8 kmh S 3.0 mph4.8 kmh 30.24 in1024.0 mb 0.00 in0.0 mm 0.00 in0.0 mm 0.00 in0.0 mm
07:30 PM 73.6°F23.1°C 69.5°F20.8°C 87% Calm Calm -- 30.24 in1024.0 mb 0.00 in0.0 mm 0.00 in0.0 mm 0.00 in0.0 mm
07:45 PM 72.9°F22.7°C 69.1°F20.6°C 88% Calm Calm 1.0 mph1.6 kmh 30.25 in1024.4 mb 0.00 in0.0 mm 0.00 in0.0 mm 0.00 in0.0 mm
08:00 PM 72.3°F22.4°C 68.8°F20.4°C 89% 1.0 mph S1.6 kmh S 1.0 mph1.6 kmh 30.25 in1024.4 mb 0.00 in0.0 mm 0.00 in0.0 mm 0.00 in0.0 mm
08:15 PM 72.1°F22.3°C 68.6°F20.3°C 89% 2.0 mph S3.2 kmh S 5.1 mph8.2 kmh 30.25 in1024.4 mb 0.00 in0.0 mm 0.00 in0.0 mm 0.00 in0.0 mm
08:30 PM 71.9°F22.2°C 68.4°F20.2°C 89% 1.0 mph SSE1.6 kmh SSE 5.1 mph8.2 kmh 30.25 in1024.4 mb 0.00 in0.0 mm 0.00 in0.0 mm 0.00 in0.0 mm
08:45 PM 71.9°F22.2°C 68.4°F20.2°C 89% 2.0 mph S3.2 kmh S 4.0 mph6.4 kmh 30.25 in1024.4 mb 0.00 in0.0 mm 0.00 in0.0 mm 0.00 in0.0 mm
09:00 PM 71.5°F21.9°C 68.4°F20.2°C 90% Calm Calm 2.0 mph3.2 kmh 30.26 in1024.7 mb 0.00 in0.0 mm 0.00 in0.0 mm 0.00 in0.0 mm
09:15 PM 71.2°F21.8°C 68.1°F20.1°C 90% 1.0 mph S1.6 kmh S 4.0 mph6.4 kmh 30.26 in1024.7 mb 0.00 in0.0 mm 0.00 in0.0 mm 0.00 in0.0 mm
09:30 PM 71.0°F21.7°C 67.9°F19.9°C 90% 1.0 mph S1.6 kmh S 2.0 mph3.2 kmh 30.26 in1024.7 mb 0.00 in0.0 mm 0.00 in0.0 mm 0.00 in0.0 mm
09:45 PM 70.6°F21.4°C 67.8°F19.9°C 91% 1.0 mph S1.6 kmh S 4.0 mph6.4 kmh 30.26 in1024.7 mb 0.00 in0.0 mm 0.00 in0.0 mm 0.00 in0.0 mm
10:00 PM 70.3°F21.3°C 67.5°F19.7°C 91% 2.0 mph S3.2 kmh S 2.0 mph3.2 kmh 30.26 in1024.7 mb 0.00 in0.0 mm 0.00 in0.0 mm 0.00 in0.0 mm
10:15 PM 69.8°F21.0°C 67.3°F19.6°C 92% 1.0 mph S1.6 kmh S 2.0 mph3.2 kmh 30.26 in1024.7 mb 0.00 in0.0 mm 0.00 in0.0 mm 0.00 in0.0 mm
10:30 PM 69.8°F21.0°C 67.0°F19.4°C 91% 1.0 mph S1.6 kmh S 2.0 mph3.2 kmh 30.26 in1024.7 mb 0.00 in0.0 mm 0.00 in0.0 mm 0.00 in0.0 mm
10:45 PM 69.8°F21.0°C 67.0°F19.4°C 91% 2.0 mph SSW3.2 kmh SSW 3.0 mph4.8 kmh 30.25 in1024.4 mb 0.00 in0.0 mm 0.00 in0.0 mm 0.00 in0.0 mm
11:00 PM 69.6°F20.9°C 66.8°F19.3°C 91% 1.0 mph SSW1.6 kmh SSW 2.0 mph3.2 kmh 30.25 in1024.4 mb 0.00 in0.0 mm 0.00 in0.0 mm 0.00 in0.0 mm
11:15 PM 69.5°F20.8°C 66.7°F19.3°C 91% 2.0 mph S3.2 kmh S 2.0 mph3.2 kmh 30.25 in1024.4 mb 0.00 in0.0 mm 0.00 in0.0 mm 0.00 in0.0 mm
11:30 PM 69.0°F20.6°C 66.6°F19.2°C 92% 2.0 mph S3.2 kmh S 2.0 mph3.2 kmh 30.25 in1024.4 mb 0.00 in0.0 mm 0.00 in0.0 mm 0.00 in0.0 mm
11:45 PM 68.6°F20.3°C 66.2°F19.0°C 92% Calm Calm -- 30.25 in1024.4 mb 0.00 in0.0 mm 0.00 in0.0 mm 0.00 in0.0 mm